Time;durP1;ratioP1;P1;durP2;ratioP2;P2;SDS_P1;SDS_P2;PMS_P1;PMS_P2;Temp;Humidity;BMP_temperature;BMP_pressure;BME280_temperature;BME280_humidity;BME280_pressure;Samples;Min_cycle;Max_cycle;Signal;HPM_P1;HPM_P2
2022/10/07 00:01:05;;;;;;;4.10;1.37;;;22.30;68.50;;;;;;5050149;28;20229;-68
2022/10/07 00:03:34;;;;;;;3.23;1.27;;;22.20;69.20;;;;;;5046303;28;20262;-69
2022/10/07 00:06:21;;;;;;;5.60;1.50;;;22.10;68.20;;;;;;5047170;28;20348;-70
2022/10/07 00:08:51;;;;;;;6.70;1.57;;;22.30;69.00;;;;;;5045306;28;20198;-69
2022/10/07 00:11:22;;;;;;;5.73;2.07;;;22.30;68.60;;;;;;5050629;28;20184;-69
2022/10/07 00:13:53;;;;;;;4.57;1.70;;;22.20;69.50;;;;;;5051263;28;20211;-69
2022/10/07 00:16:24;;;;;;;6.20;2.13;;;22.30;69.70;;;;;;5048346;28;20184;-68
2022/10/07 00:18:56;;;;;;;8.10;2.60;;;22.50;68.70;;;;;;5048402;28;20192;-68
2022/10/07 00:21:26;;;;;;;7.07;2.40;;;22.60;68.90;;;;;;5070793;28;20200;-70
2022/10/07 00:23:53;;;;;;;10.33;3.23;;;22.50;69.90;;;;;;5048170;28;20279;-68
2022/10/07 00:26:23;;;;;;;10.50;2.77;;;22.20;70.80;;;;;;5048525;28;20185;-69
2022/10/07 00:28:50;;;;;;;10.40;2.90;;;21.90;72.50;;;;;;5052124;28;20632;-67
2022/10/07 00:31:21;;;;;;;13.43;3.57;;;21.90;72.70;;;;;;5046524;28;20216;-67
2022/10/07 00:33:49;;;;;;;14.93;3.07;;;22.10;72.60;;;;;;5052029;28;20554;-68
2022/10/07 00:36:22;;;;;;;13.67;3.90;;;21.90;72.40;;;;;;5049333;28;20184;-68
2022/10/07 00:38:57;;;;;;;14.40;3.10;;;22.10;71.60;;;;;;5046260;28;20179;-68
2022/10/07 00:41:31;;;;;;;10.80;3.07;;;22.20;71.60;;;;;;5051741;28;20206;-67
2022/10/07 00:44:00;;;;;;;12.40;2.60;;;22.10;71.30;;;;;;5046574;28;20192;-67
2022/10/07 00:46:32;;;;;;;13.00;2.83;;;22.30;70.80;;;;;;5046735;28;20200;-68
2022/10/07 00:49:07;;;;;;;11.47;2.47;;;22.30;70.70;;;;;;5049668;28;20183;-68
2022/10/07 00:51:35;;;;;;;11.87;2.70;;;22.10;71.00;;;;;;5050786;28;20183;-67
2022/10/07 00:54:08;;;;;;;8.63;2.50;;;22.20;71.20;;;;;;5051859;28;20226;-67
2022/10/07 00:56:36;;;;;;;8.60;2.47;;;22.20;71.50;;;;;;5046224;28;20215;-67
2022/10/07 00:59:04;;;;;;;8.30;2.50;;;22.30;70.70;;;;;;5051324;28;20212;-67
2022/10/07 01:01:31;;;;;;;14.93;3.20;;;22.30;70.90;;;;;;5048073;28;20221;-70
2022/10/07 01:03:59;;;;;;;11.60;2.77;;;22.40;69.90;;;;;;5040507;28;20651;-67
2022/10/07 01:06:26;;;;;;;12.80;2.30;;;22.30;69.90;;;;;;5049143;28;20183;-70
2022/10/07 01:08:56;;;;;;;9.57;2.33;;;22.40;70.80;;;;;;5049997;28;20614;-69
2022/10/07 01:11:37;;;;;;;8.67;2.40;;;22.40;70.50;;;;;;5053327;28;20172;-69
2022/10/07 01:14:22;;;;;;;12.70;3.10;;;22.40;70.40;;;;;;5038657;28;20207;-69
2022/10/07 01:17:17;;;;;;;11.43;2.53;;;22.50;70.60;;;;;;5042607;28;20222;-69
2022/10/07 01:20:16;;;;;;;7.57;2.10;;;22.50;69.80;;;;;;5041520;28;20253;-69
2022/10/07 01:22:49;;;;;;;9.93;2.13;;;22.30;69.50;;;;;;5048918;28;20196;-70
2022/10/07 01:25:40;;;;;;;8.77;2.67;;;22.30;70.20;;;;;;5047910;28;20188;-69
2022/10/07 01:28:49;;;;;;;5.27;2.30;;;22.20;70.60;;;;;;5038629;28;20644;-71
2022/10/07 01:31:20;;;;;;;11.20;2.40;;;22.20;70.80;;;;;;5048007;28;20676;-68
2022/10/07 01:33:50;;;;;;;7.90;2.33;;;22.20;70.50;;;;;;5050459;28;20585;-71
2022/10/07 01:36:21;;;;;;;8.63;2.37;;;22.20;70.70;;;;;;5042712;28;20184;-70
2022/10/07 01:39:01;;;;;;;6.73;2.10;;;22.10;70.70;;;;;;5053071;28;20234;-72
2022/10/07 01:41:29;;;;;;;11.33;2.20;;;22.10;71.20;;;;;;5052157;28;20643;-68
2022/10/07 01:43:59;;;;;;;9.83;2.40;;;22.00;71.40;;;;;;5051576;28;20202;-69
2022/10/07 01:46:29;;;;;;;7.97;2.43;;;21.90;70.90;;;;;;5052171;28;20176;-68
2022/10/07 01:48:57;;;;;;;10.10;2.60;;;21.90;71.70;;;;;;5052930;28;20310;-67
2022/10/07 01:51:28;;;;;;;9.23;2.93;;;22.00;70.90;;;;;;5052000;28;20559;-67
2022/10/07 01:54:04;;;;;;;13.93;3.50;;;22.10;71.70;;;;;;5052742;28;20222;-69
2022/10/07 01:56:48;;;;;;;17.17;4.37;;;22.00;72.60;;;;;;5053083;28;20262;-67
2022/10/07 01:59:37;;;;;;;13.77;4.10;;;21.60;74.00;;;;;;5053068;28;20191;-67
2022/10/07 02:02:31;;;;;;;17.10;3.73;;;21.60;74.00;;;;;;5053019;28;20168;-67
2022/10/07 02:05:26;;;;;;;12.87;3.53;;;21.50;74.00;;;;;;5033018;28;20204;-67
2022/10/07 02:07:53;;;;;;;14.50;3.90;;;21.40;74.40;;;;;;5045879;28;20172;-67
2022/10/07 02:10:35;;;;;;;17.77;3.53;;;21.40;74.80;;;;;;5052490;28;20180;-67
2022/10/07 02:13:22;;;;;;;12.60;3.10;;;21.30;74.80;;;;;;5052631;28;20191;-68
2022/10/07 02:16:04;;;;;;;13.07;3.03;;;21.10;74.80;;;;;;5052605;28;20183;-69
2022/10/07 02:18:36;;;;;;;15.43;3.67;;;21.10;75.40;;;;;;5052416;28;20245;-67
2022/10/07 02:21:07;;;;;;;11.90;3.07;;;21.00;75.30;;;;;;5052397;28;20184;-67
2022/10/07 02:23:40;;;;;;;9.87;2.67;;;21.10;75.50;;;;;;5052126;28;20206;-67
2022/10/07 02:26:11;;;;;;;9.83;2.93;;;21.10;75.70;;;;;;5052581;28;20263;-68
2022/10/07 02:28:42;;;;;;;12.13;3.27;;;21.00;74.90;;;;;;5052301;28;20178;-68
2022/10/07 02:31:12;;;;;;;9.37;2.33;;;21.00;75.30;;;;;;5052496;28;20186;-67
2022/10/07 02:33:41;;;;;;;11.07;3.13;;;20.90;75.20;;;;;;5052014;28;20254;-68
2022/10/07 02:36:20;;;;;;;8.33;2.77;;;20.90;75.50;;;;;;5050288;28;21863;-67
2022/10/07 02:38:47;;;;;;;7.77;2.67;;;20.90;75.20;;;;;;5031388;28;20192;-67
2022/10/07 02:41:32;;;;;;;8.13;2.40;;;20.90;75.30;;;;;;5055873;28;20203;-67
2022/10/07 02:44:13;;;;;;;5.97;2.30;;;20.90;75.10;;;;;;5031536;28;20185;-68
2022/10/07 02:47:17;;;;;;;14.23;2.23;;;20.80;75.50;;;;;;5043012;28;20187;-68
2022/10/07 02:49:51;;;;;;;8.50;2.30;;;20.80;75.70;;;;;;5047234;28;20192;-70
2022/10/07 02:52:21;;;;;;;9.97;2.60;;;20.70;76.50;;;;;;5047433;28;20185;-67
2022/10/07 02:55:09;;;;;;;11.27;2.83;;;20.70;77.00;;;;;;5046605;28;20242;-67
2022/10/07 02:57:46;;;;;;;9.20;2.33;;;20.60;76.90;;;;;;5032263;28;20650;-67
2022/10/07 03:00:14;;;;;;;8.63;2.90;;;20.50;77.30;;;;;;5047177;28;20176;-68
2022/10/07 03:03:01;;;;;;;9.03;3.00;;;20.50;77.70;;;;;;5049972;28;20554;-68
2022/10/07 03:05:28;;;;;;;10.93;2.73;;;20.40;77.60;;;;;;5051001;28;20262;-67
2022/10/07 03:08:02;;;;;;;12.30;3.17;;;20.40;78.00;;;;;;5049771;28;20172;-67
2022/10/07 03:10:30;;;;;;;10.30;2.80;;;20.30;77.50;;;;;;5050541;28;20661;-68
2022/10/07 03:12:57;;;;;;;6.83;2.10;;;20.20;77.90;;;;;;5051669;28;20210;-68
2022/10/07 03:15:26;;;;;;;8.33;2.47;;;20.30;78.20;;;;;;5050620;28;20180;-66
2022/10/07 03:17:53;;;;;;;8.47;2.20;;;20.30;78.50;;;;;;5051770;28;20180;-67
2022/10/07 03:20:21;;;;;;;10.67;2.00;;;20.20;78.20;;;;;;5051882;28;20180;-67
2022/10/07 03:22:49;;;;;;;8.73;2.27;;;20.20;78.40;;;;;;5051530;28;20292;-67
2022/10/07 03:25:16;;;;;;;8.13;3.27;;;20.10;78.60;;;;;;5051503;28;20182;-68
2022/10/07 03:27:44;;;;;;;7.57;2.43;;;20.10;79.00;;;;;;5051797;28;20195;-67
2022/10/07 03:30:12;;;;;;;9.07;2.53;;;20.00;79.20;;;;;;5051778;28;20180;-67
2022/10/07 03:32:41;;;;;;;12.67;2.87;;;20.00;79.50;;;;;;5050348;28;20642;-68
2022/10/07 03:35:09;;;;;;;10.07;2.20;;;19.90;79.50;;;;;;5042025;28;20231;-68
2022/10/07 03:37:36;;;;;;;7.50;2.70;;;19.90;79.80;;;;;;5051591;28;20180;-68
2022/10/07 03:40:04;;;;;;;6.47;2.10;;;20.00;79.50;;;;;;5055451;28;20179;-69
2022/10/07 03:42:32;;;;;;;13.40;3.13;;;20.00;79.80;;;;;;5050207;28;20706;-68
2022/10/07 03:44:59;;;;;;;8.77;2.63;;;19.80;79.80;;;;;;5049795;28;20666;-66
2022/10/07 03:47:27;;;;;;;12.03;2.67;;;19.80;80.30;;;;;;5051443;28;20194;-67
2022/10/07 03:49:56;;;;;;;12.70;3.40;;;19.80;80.40;;;;;;5050685;28;20188;-69
2022/10/07 03:52:23;;;;;;;8.47;2.70;;;19.80;80.80;;;;;;5051696;28;20271;-68
2022/10/07 03:54:52;;;;;;;20.80;3.23;;;19.70;81.40;;;;;;5050970;28;20226;-68
2022/10/07 04:00:05;;;;;;;12.70;3.33;;;19.70;82.80;;;;;;5051959;28;20234;-67
2022/10/07 04:02:32;;;;;;;23.57;11.60;;;19.60;83.50;;;;;;5051455;28;20184;-69
2022/10/07 04:05:00;;;;;;;12.90;4.73;;;19.60;83.80;;;;;;5052318;28;20690;-71
2022/10/07 04:07:27;;;;;;;12.03;3.73;;;19.50;83.80;;;;;;5054985;28;20258;-73
2022/10/07 04:09:54;;;;;;;11.83;3.60;;;19.40;84.00;;;;;;5054986;28;20180;-69
2022/10/07 04:12:22;;;;;;;12.43;3.40;;;19.30;84.20;;;;;;5055232;28;20179;-69
2022/10/07 04:14:49;;;;;;;8.80;3.23;;;19.30;84.60;;;;;;5055030;28;20208;-67
2022/10/07 04:17:20;;;;;;;11.27;3.17;;;19.30;84.90;;;;;;5055262;28;20268;-68
2022/10/07 04:19:48;;;;;;;12.30;3.00;;;19.30;85.20;;;;;;5054916;28;20254;-72
2022/10/07 04:22:15;;;;;;;12.20;3.73;;;19.20;85.30;;;;;;5055028;28;20655;-70
2022/10/07 04:24:42;;;;;;;11.43;3.13;;;19.20;85.80;;;;;;5054432;28;20199;-70
2022/10/07 04:27:10;;;;;;;14.13;3.00;;;19.20;86.20;;;;;;5055065;28;20191;-73
2022/10/07 04:29:37;;;;;;;15.77;3.73;;;19.20;86.00;;;;;;5054847;28;20176;-69
2022/10/07 04:32:05;;;;;;;21.00;4.17;;;19.20;86.20;;;;;;5054555;28;20199;-70
2022/10/07 04:34:32;;;;;;;13.37;3.97;;;19.20;86.40;;;;;;5054178;28;20204;-76
2022/10/07 04:36:59;;;;;;;14.03;4.13;;;19.20;86.60;;;;;;5054296;28;20184;-70
2022/10/07 04:39:27;;;;;;;14.77;3.60;;;19.10;87.10;;;;;;5053097;28;20222;-69
2022/10/07 04:41:54;;;;;;;21.83;3.97;;;19.10;87.30;;;;;;5054162;28;20309;-68
2022/10/07 04:44:22;;;;;;;11.30;4.03;;;19.00;87.40;;;;;;5054167;28;20195;-72
2022/10/07 04:46:50;;;;;;;13.07;3.87;;;19.00;87.70;;;;;;5054055;28;20698;-72
2022/10/07 04:49:17;;;;;;;19.87;4.33;;;19.00;88.00;;;;;;5054556;28;20187;-68
2022/10/07 04:51:46;;;;;;;18.27;3.90;;;19.00;88.30;;;;;;5054108;28;20564;-68
2022/10/07 04:54:13;;;;;;;17.17;4.63;;;19.00;88.50;;;;;;5053906;28;20361;-68
2022/10/07 04:56:42;;;;;;;15.80;4.87;;;19.00;88.70;;;;;;5053964;28;20179;-69
2022/10/07 04:59:10;;;;;;;12.90;3.83;;;18.90;89.00;;;;;;5053650;28;20545;-68
2022/10/07 05:01:37;;;;;;;8.97;3.90;;;18.80;88.90;;;;;;5054131;28;20538;-68
2022/10/07 05:04:04;;;;;;;5.67;3.00;;;18.80;88.90;;;;;;5057467;28;20579;-68
2022/10/07 05:06:32;;;;;;;5.37;2.93;;;18.80;88.40;;;;;;5039223;28;20181;-69
2022/10/07 05:08:59;;;;;;;5.73;2.83;;;18.70;88.10;;;;;;5047729;28;20199;-72
2022/10/07 05:11:26;;;;;;;6.17;2.63;;;18.60;88.00;;;;;;5053099;28;20180;-70
2022/10/07 05:13:54;;;;;;;7.60;3.40;;;18.60;88.20;;;;;;5052002;28;20211;-73
2022/10/07 05:16:21;;;;;;;5.50;2.50;;;18.50;88.40;;;;;;5052594;28;20180;-73
2022/10/07 05:18:49;;;;;;;5.37;3.83;;;18.50;88.10;;;;;;5053779;28;20526;-69
2022/10/07 05:21:16;;;;;;;6.27;3.50;;;18.50;88.70;;;;;;5053878;28;20175;-70
2022/10/07 05:23:44;;;;;;;7.00;3.53;;;18.40;88.90;;;;;;5054117;28;20168;-72
2022/10/07 05:26:12;;;;;;;6.57;4.10;;;18.30;88.80;;;;;;5053770;28;20583;-71
2022/10/07 05:28:40;;;;;;;6.37;4.07;;;18.40;89.60;;;;;;5053144;28;20262;-71
2022/10/07 05:31:10;;;;;;;9.80;3.87;;;18.30;89.60;;;;;;5053690;28;20183;-70
2022/10/07 05:33:39;;;;;;;11.20;3.90;;;18.20;89.70;;;;;;5064152;28;20230;-71
2022/10/07 05:36:08;;;;;;;7.43;4.63;;;18.20;89.70;;;;;;5053533;28;20187;-71
2022/10/07 05:38:36;;;;;;;11.50;6.80;;;18.20;89.90;;;;;;5053158;28;20178;-70
2022/10/07 05:41:06;;;;;;;11.90;10.43;;;18.20;90.10;;;;;;5052417;28;20195;-71
2022/10/07 05:43:36;;;;;;;10.17;5.37;;;18.20;90.30;;;;;;5054851;28;20215;-71
2022/10/07 05:46:15;;;;;;;15.20;4.97;;;18.20;90.50;;;;;;5053426;28;20250;-71
2022/10/07 05:48:47;;;;;;;8.93;5.50;;;18.20;90.70;;;;;;5053654;28;20184;-72
2022/10/07 05:51:15;;;;;;;9.77;5.20;;;18.20;90.90;;;;;;5053295;28;20183;-71
2022/10/07 05:53:43;;;;;;;8.67;5.13;;;18.10;90.70;;;;;;5053141;28;20219;-71
2022/10/07 05:56:14;;;;;;;19.83;14.13;;;18.10;90.80;;;;;;5052281;28;20241;-70
2022/10/07 05:58:42;;;;;;;14.30;12.20;;;18.10;90.90;;;;;;5053594;28;20241;-71
2022/10/07 06:01:16;;;;;;;9.43;7.53;;;18.00;90.80;;;;;;5050794;28;20641;-71
2022/10/07 06:03:48;;;;;;;6.73;5.30;;;18.00;90.80;;;;;;5044496;28;20210;-71
2022/10/07 06:06:16;;;;;;;6.73;4.30;;;17.90;90.90;;;;;;5049086;28;20233;-70
2022/10/07 06:08:44;;;;;;;5.10;4.53;;;17.80;90.90;;;;;;5037639;28;20181;-70
2022/10/07 06:13:59;;;;;;;10.53;5.50;;;17.90;91.40;;;;;;5056462;28;20216;-70
2022/10/07 06:16:27;;;;;;;6.33;5.23;;;17.80;91.20;;;;;;5051910;28;20176;-70
2022/10/07 06:18:55;;;;;;;9.93;5.70;;;17.80;91.20;;;;;;5041127;28;20196;-69
2022/10/07 06:21:27;;;;;;;7.43;5.67;;;17.80;91.30;;;;;;5040611;28;20233;-70
2022/10/07 06:23:57;;;;;;;7.00;5.57;;;17.80;91.40;;;;;;5052699;28;20242;-70
2022/10/07 06:26:24;;;;;;;8.23;5.83;;;17.70;91.30;;;;;;5052473;28;20182;-69
2022/10/07 06:28:52;;;;;;;7.43;6.47;;;17.70;91.50;;;;;;5045934;28;20234;-69
2022/10/07 06:31:24;;;;;;;6.67;6.00;;;17.70;91.50;;;;;;5045139;28;20179;-70
2022/10/07 06:33:52;;;;;;;6.73;5.73;;;17.70;91.60;;;;;;5052134;28;20226;-70
2022/10/07 06:36:19;;;;;;;10.70;5.77;;;17.70;91.80;;;;;;5052097;28;20182;-69
2022/10/07 06:38:48;;;;;;;10.27;6.23;;;17.60;91.80;;;;;;5049438;28;20592;-69
2022/10/07 06:41:16;;;;;;;8.70;5.27;;;17.60;91.90;;;;;;5051346;28;20183;-70
2022/10/07 06:43:43;;;;;;;7.77;5.73;;;17.60;91.90;;;;;;5050125;28;20574;-69
2022/10/07 06:46:17;;;;;;;7.73;5.90;;;17.60;92.00;;;;;;5051353;28;20275;-69
2022/10/07 06:48:45;;;;;;;7.60;6.53;;;17.60;92.00;;;;;;5052098;28;20660;-70
2022/10/07 06:51:18;;;;;;;6.80;6.20;;;17.60;92.10;;;;;;5051812;28;20184;-69
2022/10/07 06:53:50;;;;;;;11.60;6.97;;;17.60;92.20;;;;;;5051403;28;20221;-69
2022/10/07 06:56:17;;;;;;;12.17;7.33;;;17.60;92.30;;;;;;5051514;28;20290;-69
2022/10/07 06:58:45;;;;;;;11.13;9.50;;;17.70;92.30;;;;;;5053220;28;20229;-70
2022/10/07 07:01:12;;;;;;;11.50;10.30;;;17.60;92.20;;;;;;5046163;28;20646;-69
2022/10/07 07:03:40;;;;;;;9.40;8.07;;;17.50;92.20;;;;;;5051719;28;20183;-69
2022/10/07 07:06:09;;;;;;;8.23;6.80;;;17.50;92.30;;;;;;5049107;28;20184;-67
2022/10/07 07:08:39;;;;;;;7.33;6.10;;;17.50;92.30;;;;;;5051267;28;20206;-69
2022/10/07 07:13:55;;;;;;;7.93;6.27;;;17.50;92.20;;;;;;5050294;28;20307;-69
2022/10/07 07:16:23;;;;;;;8.40;6.20;;;17.40;92.20;;;;;;5053227;28;20194;-70
2022/10/07 07:18:55;;;;;;;7.27;6.57;;;17.40;92.10;;;;;;5051716;28;20191;-69
2022/10/07 07:21:25;;;;;;;8.37;6.30;;;17.40;92.00;;;;;;5050016;28;20245;-69
2022/10/07 07:23:52;;;;;;;7.80;6.13;;;17.30;92.20;;;;;;5043029;28;20246;-69
2022/10/07 07:26:20;;;;;;;8.13;6.60;;;17.40;92.00;;;;;;5051581;28;20213;-69
2022/10/07 07:28:58;;;;;;;7.03;6.43;;;17.30;92.00;;;;;;5051250;28;20176;-69
2022/10/07 07:31:28;;;;;;;7.77;7.17;;;17.30;92.00;;;;;;5038831;28;20252;-69
2022/10/07 07:34:00;;;;;;;7.27;6.63;;;17.50;92.20;;;;;;5047638;28;20241;-69
2022/10/07 07:36:30;;;;;;;9.43;6.43;;;17.30;91.90;;;;;;5045106;28;20175;-68
2022/10/07 07:39:04;;;;;;;7.43;6.83;;;17.40;92.20;;;;;;5051760;28;20187;-68
2022/10/07 07:41:34;;;;;;;7.57;6.87;;;17.30;92.10;;;;;;5041555;28;20183;-68
2022/10/07 07:44:04;;;;;;;7.87;7.13;;;17.30;92.10;;;;;;5055293;28;20270;-69
2022/10/07 07:46:37;;;;;;;7.93;7.30;;;17.30;92.20;;;;;;5054546;28;20313;-69
2022/10/07 07:49:05;;;;;;;7.87;7.20;;;17.30;92.20;;;;;;5055245;28;20198;-69
2022/10/07 07:51:33;;;;;;;7.63;7.03;;;17.30;92.20;;;;;;5054148;28;20191;-69
2022/10/07 07:54:00;;;;;;;7.60;6.90;;;17.20;92.30;;;;;;5054830;28;20677;-69
2022/10/07 07:56:30;;;;;;;8.23;7.53;;;17.20;92.40;;;;;;5054817;28;20226;-69
2022/10/07 07:58:58;;;;;;;9.17;7.33;;;17.20;92.40;;;;;;5055155;28;20214;-70
2022/10/07 08:01:25;;;;;;;8.53;7.93;;;17.20;92.40;;;;;;5054842;28;20581;-70
2022/10/07 08:03:54;;;;;;;9.23;8.53;;;17.20;92.50;;;;;;5054944;28;20176;-69
2022/10/07 08:06:21;;;;;;;8.77;7.77;;;17.30;92.50;;;;;;5054513;28;20180;-69
2022/10/07 08:08:50;;;;;;;9.87;8.97;;;17.20;92.40;;;;;;5053353;28;20183;-69
2022/10/07 08:11:19;;;;;;;9.27;8.47;;;17.30;92.40;;;;;;5054940;28;20194;-68
2022/10/07 08:13:48;;;;;;;9.67;8.93;;;17.30;92.30;;;;;;5053347;28;20345;-68
2022/10/07 08:16:20;;;;;;;9.37;8.67;;;17.30;92.20;;;;;;5054318;28;20182;-70
2022/10/07 08:18:49;;;;;;;9.93;9.07;;;17.30;92.20;;;;;;5054172;28;20233;-69
2022/10/07 08:21:19;;;;;;;9.90;8.90;;;17.30;92.10;;;;;;5054405;28;20230;-69
2022/10/07 08:23:51;;;;;;;10.03;9.03;;;17.30;92.20;;;;;;5052667;28;20198;-71
2022/10/07 08:26:19;;;;;;;10.47;9.43;;;17.30;92.30;;;;;;5054356;28;20180;-71
2022/10/07 08:28:47;;;;;;;9.87;8.90;;;17.30;92.30;;;;;;5054427;28;20184;-71
2022/10/07 08:31:17;;;;;;;10.70;9.67;;;17.30;92.30;;;;;;5039791;28;20245;-71
2022/10/07 08:33:46;;;;;;;11.07;10.17;;;17.30;92.40;;;;;;5053572;28;20218;-69
2022/10/07 08:36:19;;;;;;;9.87;8.97;;;17.30;92.40;;;;;;5053454;28;20175;-69
2022/10/07 08:38:47;;;;;;;10.63;9.83;;;17.30;92.30;;;;;;5054124;28;20214;-68
2022/10/07 08:41:23;;;;;;;11.57;10.40;;;17.20;92.30;;;;;;5054864;28;20233;-70
2022/10/07 08:43:51;;;;;;;10.00;9.07;;;17.20;92.30;;;;;;5054743;28;20248;-68
2022/10/07 08:46:37;;;;;;;10.30;9.40;;;17.20;92.30;;;;;;5054116;28;20689;-72
2022/10/07 08:49:19;;;;;;;10.00;9.20;;;17.20;92.30;;;;;;5051531;28;20194;-69
2022/10/07 08:51:49;;;;;;;10.80;9.70;;;17.20;92.30;;;;;;5052043;28;20186;-70
2022/10/07 08:54:25;;;;;;;9.50;8.60;;;17.20;92.20;;;;;;5053767;28;20286;-70
2022/10/07 08:56:54;;;;;;;10.80;9.67;;;17.20;92.20;;;;;;5039379;28;20194;-69
2022/10/07 08:59:34;;;;;;;11.93;9.37;;;17.10;92.20;;;;;;5054348;28;20228;-71
2022/10/07 09:02:10;;;;;;;10.20;9.20;;;17.10;92.20;;;;;;5041258;28;20191;-69
2022/10/07 09:04:55;;;;;;;10.47;9.60;;;17.10;92.00;;;;;;5053576;28;20245;-70
2022/10/07 09:07:36;;;;;;;9.87;9.03;;;17.10;92.00;;;;;;5046630;28;20194;-72
2022/10/07 09:10:09;;;;;;;10.07;9.17;;;17.00;91.90;;;;;;5053088;28;20194;-69
2022/10/07 09:12:47;;;;;;;10.00;9.20;;;17.00;91.90;;;;;;5053206;28;20188;-71
2022/10/07 09:15:44;;;;;;;9.77;8.87;;;17.00;91.80;;;;;;5051451;28;20640;-70
2022/10/07 09:18:33;;;;;;;10.73;9.93;;;17.10;91.80;;;;;;5052519;28;20225;-72
2022/10/07 09:21:05;;;;;;;11.27;10.17;;;17.10;91.90;;;;;;5053615;28;20270;-69
2022/10/07 09:23:35;;;;;;;11.17;9.80;;;17.10;91.90;;;;;;5053519;28;20215;-69
2022/10/07 09:26:10;;;;;;;11.07;10.17;;;17.10;91.90;;;;;;5052443;28;20650;-71
2022/10/07 09:28:38;;;;;;;10.67;9.63;;;17.00;91.90;;;;;;5053420;28;20182;-69
2022/10/07 09:31:06;;;;;;;11.50;10.30;;;17.00;91.90;;;;;;5053490;28;20306;-68
2022/10/07 09:33:40;;;;;;;12.43;11.30;;;17.00;92.00;;;;;;5053130;28;20343;-70
2022/10/07 09:36:10;;;;;;;12.33;11.10;;;17.00;92.10;;;;;;5053206;28;20211;-72
2022/10/07 09:38:51;;;;;;;12.73;11.43;;;17.10;92.10;;;;;;5053017;28;20183;-68
2022/10/07 09:41:44;;;;;;;12.67;11.57;;;17.10;92.10;;;;;;5052281;28;20232;-69
2022/10/07 09:44:28;;;;;;;13.00;11.90;;;17.00;92.10;;;;;;5053011;28;20208;-68
2022/10/07 09:47:00;;;;;;;13.47;12.47;;;17.00;92.20;;;;;;5052727;28;20215;-69
2022/10/07 09:49:28;;;;;;;14.60;13.40;;;17.00;92.10;;;;;;5052495;28;20190;-69
2022/10/07 09:51:59;;;;;;;14.83;13.53;;;17.00;92.00;;;;;;5052741;28;20181;-69
2022/10/07 09:54:28;;;;;;;15.07;13.83;;;17.00;92.00;;;;;;5053566;28;20582;-72
2022/10/07 09:56:57;;;;;;;13.67;12.57;;;17.10;92.00;;;;;;5051355;28;20186;-68
2022/10/07 09:59:33;;;;;;;14.57;13.37;;;17.10;92.00;;;;;;5052904;28;20597;-69
2022/10/07 10:02:20;;;;;;;14.97;13.80;;;17.10;92.00;;;;;;5052579;28;20189;-68
2022/10/07 10:04:52;;;;;;;15.43;14.23;;;17.10;92.00;;;;;;5052490;28;20185;-71
2022/10/07 10:07:27;;;;;;;14.77;13.67;;;17.10;92.00;;;;;;5053971;28;20259;-69
2022/10/07 10:10:05;;;;;;;14.97;13.77;;;17.10;92.00;;;;;;5052376;28;20179;-70
2022/10/07 10:12:46;;;;;;;14.27;13.10;;;17.10;92.00;;;;;;5052780;28;20186;-71
2022/10/07 10:15:43;;;;;;;16.57;15.43;;;17.10;92.10;;;;;;5053521;28;20218;-70
2022/10/07 10:18:28;;;;;;;18.33;17.03;;;17.10;92.20;;;;;;5052708;28;20520;-69
2022/10/07 10:20:56;;;;;;;17.63;16.27;;;17.10;92.10;;;;;;5052654;28;20175;-68
2022/10/07 10:23:26;;;;;;;19.17;17.87;;;17.10;92.00;;;;;;5052013;28;20674;-67
2022/10/07 10:26:26;;;;;;;19.03;17.57;;;17.10;92.10;;;;;;5051944;28;20645;-71
2022/10/07 10:29:12;;;;;;;20.87;19.47;;;17.10;92.10;;;;;;5051049;28;20207;-69
2022/10/07 10:32:01;;;;;;;21.50;20.03;;;17.20;92.10;;;;;;5052606;28;20181;-68
2022/10/07 10:34:49;;;;;;;19.80;18.43;;;17.20;92.00;;;;;;5051816;28;20625;-70
2022/10/07 10:37:34;;;;;;;20.57;19.10;;;17.20;92.00;;;;;;5049084;28;20193;-70
2022/10/07 10:40:26;;;;;;;20.60;19.13;;;17.20;92.10;;;;;;5058067;28;20186;-68
2022/10/07 10:43:00;;;;;;;22.63;21.00;;;17.20;92.10;;;;;;5052312;28;20290;-70
2022/10/07 10:45:51;;;;;;;21.97;20.47;;;17.20;92.20;;;;;;5052333;28;20218;-72
2022/10/07 10:48:29;;;;;;;20.83;19.43;;;17.20;92.20;;;;;;5051209;28;20311;-70
2022/10/07 10:51:12;;;;;;;20.63;19.23;;;17.20;92.20;;;;;;5052140;28;20695;-68
2022/10/07 10:53:57;;;;;;;20.27;18.83;;;17.10;92.20;;;;;;5040459;28;20206;-69
2022/10/07 10:56:58;;;;;;;19.23;18.03;;;17.20;92.20;;;;;;5051856;28;20177;-67
2022/10/07 10:59:41;;;;;;;19.27;17.97;;;17.10;92.20;;;;;;5048759;28;20187;-72
2022/10/07 11:02:37;;;;;;;19.27;18.00;;;17.10;92.30;;;;;;5051984;28;20194;-68
2022/10/07 11:05:16;;;;;;;20.20;18.80;;;17.10;92.20;;;;;;5043960;28;20193;-68
2022/10/07 11:07:59;;;;;;;19.33;18.13;;;17.20;92.30;;;;;;5045631;28;20269;-68
2022/10/07 11:10:57;;;;;;;20.43;19.10;;;17.20;92.20;;;;;;5037830;28;20275;-68
2022/10/07 11:13:33;;;;;;;18.63;17.53;;;17.10;92.20;;;;;;5050834;28;20230;-67
2022/10/07 11:16:06;;;;;;;19.27;18.07;;;17.20;92.20;;;;;;5046216;28;20644;-69
2022/10/07 11:19:12;;;;;;;20.07;18.97;;;17.10;92.20;;;;;;5054970;28;20231;-70
2022/10/07 11:21:45;;;;;;;19.67;18.37;;;17.20;92.20;;;;;;5069487;28;20267;-68
2022/10/07 11:24:27;;;;;;;19.50;18.30;;;17.20;92.20;;;;;;5044514;28;20179;-69
2022/10/07 11:27:10;;;;;;;19.83;18.63;;;17.20;92.20;;;;;;5055423;28;20205;-69
2022/10/07 11:29:50;;;;;;;19.87;18.57;;;17.20;92.20;;;;;;5055300;28;20635;-69
2022/10/07 11:32:56;;;;;;;19.00;17.77;;;17.20;92.20;;;;;;5055673;28;20218;-69
2022/10/07 11:35:37;;;;;;;18.70;17.60;;;17.20;92.20;;;;;;5057669;28;20225;-68
2022/10/07 11:38:11;;;;;;;18.87;17.57;;;17.20;92.10;;;;;;5045545;28;20657;-70
2022/10/07 11:40:57;;;;;;;19.43;18.13;;;17.20;92.10;;;;;;5055349;28;20196;-68
2022/10/07 11:43:24;;;;;;;19.80;18.50;;;17.20;92.00;;;;;;5055634;28;20578;-68
2022/10/07 11:45:59;;;;;;;18.93;17.73;;;17.20;92.00;;;;;;5052655;28;20185;-71
2022/10/07 11:49:13;;;;;;;18.97;17.53;;;17.20;92.00;;;;;;5055325;28;20583;-68
2022/10/07 11:51:52;;;;;;;18.00;16.90;;;17.20;92.00;;;;;;5054382;28;20183;-68
2022/10/07 11:54:23;;;;;;;18.90;17.53;;;17.20;92.00;;;;;;5055505;28;20228;-67
2022/10/07 11:56:55;;;;;;;17.73;16.73;;;17.20;91.90;;;;;;5041639;28;20538;-67
2022/10/07 11:59:40;;;;;;;17.20;16.10;;;17.20;92.00;;;;;;5043368;28;20297;-67
2022/10/07 12:02:44;;;;;;;17.67;16.67;;;17.20;91.90;;;;;;5049353;28;20186;-66
2022/10/07 12:05:35;;;;;;;18.73;17.63;;;17.20;91.90;;;;;;5033198;28;20182;-67
2022/10/07 12:08:23;;;;;;;17.57;16.23;;;17.20;91.90;;;;;;5049832;28;20202;-69
2022/10/07 12:10:56;;;;;;;17.73;16.53;;;17.20;91.90;;;;;;5054806;28;20210;-70
2022/10/07 12:13:23;;;;;;;17.00;16.10;;;17.30;91.90;;;;;;5055110;28;20180;-69
2022/10/07 12:15:52;;;;;;;17.43;16.37;;;17.30;91.80;;;;;;5054241;28;20199;-70
2022/10/07 12:18:27;;;;;;;16.70;15.70;;;17.20;91.70;;;;;;5054579;28;20180;-68
2022/10/07 12:21:01;;;;;;;17.97;16.77;;;17.30;91.70;;;;;;5054806;28;20186;-68
2022/10/07 12:23:37;;;;;;;18.17;16.97;;;17.30;91.70;;;;;;5053434;28;20184;-67
2022/10/07 12:26:26;;;;;;;17.37;16.47;;;17.30;91.70;;;;;;5053273;28;20187;-67
2022/10/07 12:28:54;;;;;;;17.90;16.90;;;17.30;91.70;;;;;;5054980;28;20192;-67
2022/10/07 12:31:24;;;;;;;17.90;16.57;;;17.30;91.70;;;;;;5053010;28;20186;-68
2022/10/07 12:34:10;;;;;;;17.67;16.70;;;17.30;91.60;;;;;;5053743;28;20322;-68
2022/10/07 12:36:40;;;;;;;17.03;16.10;;;17.30;91.60;;;;;;5047890;28;20607;-68
2022/10/07 12:39:08;;;;;;;16.63;15.73;;;17.30;91.50;;;;;;5054381;28;20214;-67
2022/10/07 12:41:37;;;;;;;18.20;17.00;;;17.30;91.50;;;;;;5053783;28;20204;-71
2022/10/07 12:44:18;;;;;;;16.40;15.50;;;17.40;91.40;;;;;;5053792;28;20607;-66
2022/10/07 12:46:50;;;;;;;18.13;17.13;;;17.40;91.30;;;;;;5041829;28;20179;-69
2022/10/07 12:49:41;;;;;;;17.40;16.23;;;17.40;91.20;;;;;;5055302;28;20198;-72
2022/10/07 12:52:15;;;;;;;15.93;15.03;;;17.50;91.10;;;;;;5051850;28;20257;-71
2022/10/07 12:55:00;;;;;;;16.50;15.50;;;17.50;90.80;;;;;;5050370;28;20706;-72
2022/10/07 12:57:37;;;;;;;15.57;14.57;;;17.50;90.60;;;;;;5054201;28;20183;-68
2022/10/07 13:00:06;;;;;;;14.53;13.73;;;17.50;90.70;;;;;;5054439;28;20275;-72
2022/10/07 13:02:54;;;;;;;14.07;13.27;;;17.60;90.60;;;;;;5054124;28;20185;-68
2022/10/07 13:05:42;;;;;;;13.77;13.07;;;17.60;90.60;;;;;;5054228;28;20625;-68
2022/10/07 13:08:31;;;;;;;13.00;12.17;;;17.60;90.50;;;;;;5048546;28;20187;-68
2022/10/07 13:11:27;;;;;;;13.13;12.37;;;17.60;90.50;;;;;;5053648;28;20262;-68
2022/10/07 13:14:13;;;;;;;12.17;11.27;;;17.60;90.50;;;;;;5052363;28;20235;-68
2022/10/07 13:16:55;;;;;;;11.33;10.73;;;17.60;90.50;;;;;;5053250;28;20198;-67
2022/10/07 13:19:45;;;;;;;10.13;9.40;;;17.60;90.50;;;;;;5052618;28;20617;-68
2022/10/07 13:22:15;;;;;;;9.77;9.27;;;17.60;90.30;;;;;;5053963;28;20274;-68